Time;durP1;ratioP1;P1;durP2;ratioP2;P2;SDS_P1;SDS_P2;PMS_P1;PMS_P2;Temp;Humidity;BMP_temperature;BMP_pressure;BME280_temperature;BME280_humidity;BME280_pressure;Samples;Min_cycle;Max_cycle;Signal;HPM_P1;HPM_P2
2022/04/18 00:00:22;;;;;;;13.50;9.00;;;7.90;64.90;;;;;;5021482;28;20033;-68
2022/04/18 00:02:47;;;;;;;11.82;9.88;;;7.80;64.90;;;;;;5022445;28;20049;-68
2022/04/18 00:05:13;;;;;;;14.18;10.35;;;7.80;64.90;;;;;;5024808;28;20076;-68
2022/04/18 00:07:39;;;;;;;13.32;10.00;;;7.80;65.30;;;;;;5024264;28;20064;-68
2022/04/18 00:10:05;;;;;;;13.10;10.07;;;7.80;65.20;;;;;;5006701;28;20045;-68
2022/04/18 00:12:31;;;;;;;18.63;11.20;;;7.80;65.30;;;;;;5021340;28;20468;-68
2022/04/18 00:14:57;;;;;;;13.57;9.07;;;7.80;65.10;;;;;;5021055;28;20056;-68
2022/04/18 00:17:23;;;;;;;15.15;10.30;;;7.70;64.90;;;;;;5024258;28;20045;-68
2022/04/18 00:19:50;;;;;;;13.35;10.50;;;7.70;64.60;;;;;;5024991;28;20084;-68
2022/04/18 00:22:16;;;;;;;12.82;9.80;;;7.80;65.00;;;;;;5025634;28;20042;-68
2022/04/18 00:24:41;;;;;;;15.75;10.20;;;7.60;65.30;;;;;;5020381;28;20522;-69
2022/04/18 00:27:07;;;;;;;13.60;9.70;;;7.60;65.00;;;;;;5020944;28;20240;-69
2022/04/18 00:29:33;;;;;;;12.85;9.68;;;7.60;65.00;;;;;;5021546;28;20049;-69
2022/04/18 00:31:59;;;;;;;12.73;9.95;;;7.60;65.80;;;;;;5011364;28;20092;-69
2022/04/18 00:34:24;;;;;;;12.98;9.32;;;7.60;65.80;;;;;;5029646;28;20037;-69
2022/04/18 00:36:50;;;;;;;12.32;9.88;;;7.60;65.60;;;;;;5022004;28;20509;-69
2022/04/18 00:39:16;;;;;;;13.27;9.90;;;7.60;65.70;;;;;;5024213;28;20040;-69
2022/04/18 00:41:42;;;;;;;13.50;10.25;;;7.50;65.50;;;;;;5023319;28;20404;-69
2022/04/18 00:44:07;;;;;;;13.85;10.48;;;7.50;65.50;;;;;;5024072;28;20097;-69
2022/04/18 00:46:33;;;;;;;17.00;11.18;;;7.50;65.80;;;;;;5021420;28;20095;-69
2022/04/18 00:48:59;;;;;;;14.25;10.60;;;7.50;65.70;;;;;;5021709;28;20056;-69
2022/04/18 00:51:26;;;;;;;16.08;10.23;;;7.50;65.60;;;;;;5023740;28;20038;-68
2022/04/18 00:53:54;;;;;;;19.42;11.45;;;7.50;65.60;;;;;;5021232;28;20049;-68
2022/04/18 00:56:20;;;;;;;14.13;10.70;;;7.40;65.70;;;;;;5022397;28;20419;-68
2022/04/18 00:58:47;;;;;;;14.27;10.10;;;7.40;65.90;;;;;;5022560;28;20049;-69
2022/04/18 01:01:14;;;;;;;16.00;11.45;;;7.40;65.70;;;;;;5033984;28;20489;-69
2022/04/18 01:03:42;;;;;;;15.85;11.15;;;7.30;65.60;;;;;;5022198;28;20049;-69
2022/04/18 01:06:08;;;;;;;14.65;10.48;;;7.40;66.00;;;;;;5022000;28;20206;-69
2022/04/18 01:08:34;;;;;;;12.93;10.18;;;7.40;65.90;;;;;;5019295;28;20053;-69
2022/04/18 01:11:01;;;;;;;13.57;10.35;;;7.40;65.80;;;;;;5022528;28;20041;-69
2022/04/18 01:13:29;;;;;;;13.48;10.35;;;7.40;65.90;;;;;;5023449;28;20370;-69
2022/04/18 01:15:57;;;;;;;17.40;10.65;;;7.40;65.70;;;;;;5023481;28;20481;-69
2022/04/18 01:18:23;;;;;;;16.02;10.80;;;7.30;65.70;;;;;;5026274;28;20033;-69
2022/04/18 01:20:49;;;;;;;14.50;10.68;;;7.30;65.60;;;;;;5025198;28;20087;-69
2022/04/18 01:23:17;;;;;;;14.93;10.20;;;7.30;66.00;;;;;;5026352;28;20038;-69
2022/04/18 01:31:11;;;;;;;12.23;9.83;;;7.30;65.70;;;;;;5025074;28;20404;-69
2022/04/18 01:33:38;;;;;;;16.35;10.85;;;7.20;65.90;;;;;;5025186;28;20045;-69
2022/04/18 01:36:04;;;;;;;12.70;10.15;;;7.20;65.70;;;;;;5029202;28;20049;-69
2022/04/18 01:38:30;;;;;;;14.75;10.27;;;7.20;66.00;;;;;;5025503;28;20132;-69
2022/04/18 01:40:56;;;;;;;14.38;10.48;;;7.20;66.20;;;;;;5026856;28;20124;-69
2022/04/18 01:43:21;;;;;;;14.23;10.30;;;7.10;66.10;;;;;;5025641;28;20025;-69
2022/04/18 01:45:47;;;;;;;15.43;10.88;;;7.10;66.20;;;;;;5024270;28;20115;-69
2022/04/18 01:48:13;;;;;;;14.10;10.32;;;7.10;66.60;;;;;;5026373;28;20083;-69
2022/04/18 01:50:39;;;;;;;14.55;10.65;;;7.00;66.40;;;;;;5023601;28;20033;-69
2022/04/18 01:53:05;;;;;;;13.85;10.55;;;7.00;66.50;;;;;;5025363;28;20069;-69
2022/04/18 01:55:31;;;;;;;15.32;10.85;;;7.00;66.60;;;;;;5040827;28;20045;-69
2022/04/18 01:57:57;;;;;;;14.00;10.68;;;6.90;67.10;;;;;;5027332;28;20130;-69
2022/04/18 02:00:23;;;;;;;14.65;10.57;;;6.90;66.90;;;;;;5023724;28;20123;-68
2022/04/18 02:02:48;;;;;;;14.98;11.02;;;6.80;67.10;;;;;;5025323;28;20452;-68
2022/04/18 02:05:14;;;;;;;15.52;11.68;;;6.70;67.50;;;;;;5025402;28;20041;-68
2022/04/18 02:07:40;;;;;;;16.38;11.60;;;6.70;67.70;;;;;;5025053;28;20409;-69
2022/04/18 02:10:06;;;;;;;14.65;11.07;;;6.70;67.70;;;;;;5026122;28;20106;-69
2022/04/18 02:12:33;;;;;;;12.27;10.45;;;6.70;67.80;;;;;;5022209;28;20077;-69
2022/04/18 02:14:59;;;;;;;16.10;11.52;;;6.70;67.90;;;;;;5024793;28;20144;-70
2022/04/18 02:17:24;;;;;;;15.63;11.60;;;6.60;68.00;;;;;;5026793;28;20540;-69
2022/04/18 02:19:50;;;;;;;17.83;12.05;;;6.60;68.50;;;;;;5021330;28;20103;-68
2022/04/18 02:22:16;;;;;;;17.83;12.07;;;6.60;68.20;;;;;;5024689;28;20042;-69
2022/04/18 02:24:42;;;;;;;15.98;11.60;;;6.60;68.40;;;;;;5024058;28;20128;-68
2022/04/18 02:27:09;;;;;;;14.15;11.10;;;6.60;68.20;;;;;;5024925;28;20336;-69
2022/04/18 02:29:34;;;;;;;16.75;10.90;;;6.50;68.10;;;;;;5025235;28;20560;-69
2022/04/18 02:34:44;;;;;;;16.37;12.47;;;6.50;68.20;;;;;;5024517;28;20064;-68
2022/04/18 02:37:10;;;;;;;16.52;11.88;;;6.50;68.30;;;;;;5026516;28;20300;-69
2022/04/18 02:39:36;;;;;;;17.00;12.18;;;6.50;68.80;;;;;;5025882;28;20128;-69
2022/04/18 02:42:03;;;;;;;18.40;12.27;;;6.40;68.70;;;;;;5023422;28;20663;-69
2022/04/18 02:44:29;;;;;;;15.55;11.18;;;6.40;68.70;;;;;;5005572;28;20094;-68
2022/04/18 02:46:55;;;;;;;18.80;11.85;;;6.40;68.80;;;;;;5021695;28;20474;-69
2022/04/18 02:49:20;;;;;;;18.15;11.82;;;6.40;68.90;;;;;;5024368;28;20497;-69
2022/04/18 02:51:46;;;;;;;15.10;11.75;;;6.40;69.00;;;;;;5023665;28;20148;-69
2022/04/18 02:54:12;;;;;;;17.85;12.57;;;6.40;68.90;;;;;;5021334;28;20041;-69
2022/04/18 02:56:37;;;;;;;17.25;12.07;;;6.40;68.70;;;;;;5002677;28;20055;-69
2022/04/18 02:59:03;;;;;;;17.13;11.75;;;6.40;68.90;;;;;;5023730;28;20045;-69
2022/04/18 03:01:29;;;;;;;17.05;12.23;;;6.30;69.30;;;;;;5022206;28;20445;-68
2022/04/18 03:03:54;;;;;;;19.77;12.13;;;6.30;69.30;;;;;;5022739;28;20034;-68
2022/04/18 03:06:20;;;;;;;17.15;12.38;;;6.20;69.50;;;;;;5024216;28;20047;-69
2022/04/18 03:08:46;;;;;;;16.25;12.18;;;6.20;69.60;;;;;;5021497;28;20943;-69
2022/04/18 03:11:11;;;;;;;17.50;11.75;;;6.20;69.50;;;;;;5022254;28;20033;-69
2022/04/18 03:13:44;;;;;;;16.60;11.90;;;6.20;69.60;;;;;;5023077;28;20611;-68
2022/04/18 03:16:11;;;;;;;15.60;12.15;;;6.10;69.70;;;;;;5025361;28;20049;-68
2022/04/18 03:18:37;;;;;;;15.52;12.02;;;6.10;69.80;;;;;;5007439;28;20037;-69
2022/04/18 03:21:03;;;;;;;17.40;11.85;;;6.10;70.30;;;;;;5020482;28;20493;-68
2022/04/18 03:23:30;;;;;;;15.35;12.15;;;6.00;70.00;;;;;;5025040;28;20124;-69
2022/04/18 03:25:57;;;;;;;17.48;12.23;;;6.10;70.20;;;;;;5025757;28;20053;-69
2022/04/18 03:28:23;;;;;;;18.75;12.63;;;6.00;70.40;;;;;;5021868;28;20040;-69
2022/04/18 03:30:49;;;;;;;16.80;11.77;;;6.10;70.40;;;;;;5024122;28;20033;-69
2022/04/18 03:33:15;;;;;;;17.42;12.63;;;6.00;70.60;;;;;;5023192;28;20524;-69
2022/04/18 03:39:50;;;;;;;16.80;12.60;;;6.00;70.60;;;;;;5023188;28;20387;-69
2022/04/18 03:41:11;;;;;;;17.27;12.17;;;5.90;70.60;;;;;;5023791;28;20037;-70
2022/04/18 03:43:38;;;;;;;16.35;11.85;;;5.80;71.40;;;;;;5025172;28;20075;-70
2022/04/18 03:46:03;;;;;;;15.82;12.65;;;5.80;70.90;;;;;;5021616;28;20970;-70
2022/04/18 03:48:29;;;;;;;18.33;13.13;;;5.80;71.40;;;;;;5023625;28;20049;-70
2022/04/18 03:50:55;;;;;;;16.30;12.77;;;5.80;71.20;;;;;;5021046;28;20057;-70
2022/04/18 03:53:20;;;;;;;18.55;13.00;;;5.70;71.20;;;;;;5023107;28;20041;-70
2022/04/18 03:55:46;;;;;;;17.58;12.77;;;5.70;71.80;;;;;;5021803;28;20041;-70
2022/04/18 03:58:12;;;;;;;18.77;13.80;;;5.60;71.60;;;;;;5021631;28;20447;-70
2022/04/18 04:00:39;;;;;;;15.60;12.48;;;5.60;71.90;;;;;;5023504;28;20029;-70
2022/04/18 04:03:04;;;;;;;17.73;13.02;;;5.70;72.00;;;;;;5012270;28;20072;-67
2022/04/18 04:05:33;;;;;;;18.65;12.27;;;5.60;72.40;;;;;;5025210;28;20065;-69
2022/04/18 04:07:59;;;;;;;17.55;12.82;;;5.60;72.40;;;;;;5022218;28;20067;-68
2022/04/18 04:10:25;;;;;;;17.05;12.73;;;5.60;71.90;;;;;;5021179;28;20064;-68
2022/04/18 04:12:50;;;;;;;16.73;12.00;;;5.60;72.20;;;;;;5022172;28;20566;-69
2022/04/18 04:15:16;;;;;;;17.85;12.80;;;5.70;72.20;;;;;;5024496;28;20091;-69
2022/04/18 04:17:42;;;;;;;16.08;11.98;;;5.60;72.40;;;;;;5022317;28;20037;-68
2022/04/18 04:20:08;;;;;;;17.38;12.27;;;5.60;72.40;;;;;;5021777;28;20124;-68
2022/04/18 04:22:34;;;;;;;18.30;12.20;;;5.60;72.10;;;;;;5021230;28;20041;-69
2022/04/18 04:25:00;;;;;;;16.77;11.68;;;5.60;72.50;;;;;;5022360;28;20033;-69
2022/04/18 04:27:26;;;;;;;19.55;11.48;;;5.60;72.50;;;;;;5023189;28;20049;-68
2022/04/18 04:29:52;;;;;;;17.52;12.10;;;5.50;72.90;;;;;;5024069;28;20373;-68
2022/04/18 04:32:17;;;;;;;15.65;11.77;;;5.50;72.90;;;;;;5020501;28;20057;-68
2022/04/18 04:34:44;;;;;;;19.48;12.63;;;5.50;72.80;;;;;;5023507;28;20038;-69
2022/04/18 04:37:09;;;;;;;17.15;12.55;;;5.50;73.00;;;;;;5023262;28;20046;-69
2022/04/18 04:39:35;;;;;;;19.73;12.45;;;5.50;72.80;;;;;;5020036;28;20418;-68
2022/04/18 04:42:00;;;;;;;15.68;11.55;;;5.50;73.40;;;;;;5020909;28;20038;-68
2022/04/18 04:44:26;;;;;;;15.98;11.73;;;5.50;73.00;;;;;;5022660;28;20072;-68
2022/04/18 04:46:52;;;;;;;16.02;12.35;;;5.50;73.10;;;;;;5021043;28;20150;-69
2022/04/18 04:49:17;;;;;;;16.48;11.32;;;5.40;73.40;;;;;;5021688;28;20064;-69
2022/04/18 04:51:43;;;;;;;16.70;11.57;;;5.50;73.50;;;;;;5022174;28;20042;-69
2022/04/18 04:54:09;;;;;;;15.25;11.73;;;5.50;73.70;;;;;;5019698;28;20473;-69
2022/04/18 04:56:34;;;;;;;18.13;12.43;;;5.50;73.60;;;;;;5024141;28;20064;-68
2022/04/18 04:59:01;;;;;;;17.80;12.25;;;5.50;73.60;;;;;;5023056;28;20049;-68
2022/04/18 05:01:27;;;;;;;17.85;11.40;;;5.50;73.90;;;;;;5020390;28;20037;-69
2022/04/18 05:03:52;;;;;;;18.10;11.98;;;5.60;73.60;;;;;;5024511;28;20037;-69
2022/04/18 05:06:18;;;;;;;15.43;11.75;;;5.60;73.60;;;;;;5029616;28;20104;-69
2022/04/18 05:08:44;;;;;;;19.48;13.07;;;5.70;73.70;;;;;;5028258;28;20057;-69
2022/04/18 05:11:10;;;;;;;17.88;11.68;;;5.70;73.90;;;;;;5027708;28;20033;-69
2022/04/18 05:13:35;;;;;;;14.75;11.77;;;5.70;73.70;;;;;;5025391;28;20605;-69
2022/04/18 05:16:01;;;;;;;18.27;12.35;;;5.80;73.70;;;;;;5027052;28;20064;-69
2022/04/18 05:18:27;;;;;;;19.55;12.25;;;5.80;74.00;;;;;;5029435;28;20026;-69
2022/04/18 05:20:53;;;;;;;18.55;13.23;;;5.90;74.00;;;;;;5027443;28;20041;-69
2022/04/18 05:23:20;;;;;;;16.77;11.55;;;6.00;73.80;;;;;;5029398;28;20517;-69
2022/04/18 05:25:46;;;;;;;16.15;12.07;;;6.10;73.40;;;;;;5011089;28;20557;-69
2022/04/18 05:28:12;;;;;;;17.55;12.10;;;6.20;73.20;;;;;;5029233;28;20088;-69
2022/04/18 05:30:39;;;;;;;17.00;11.55;;;6.30;73.10;;;;;;5023821;28;20069;-69
2022/04/18 05:33:08;;;;;;;18.13;11.77;;;6.40;73.00;;;;;;5026193;28;20099;-69
2022/04/18 05:35:34;;;;;;;15.65;11.75;;;6.60;72.90;;;;;;5026000;28;20049;-69
2022/04/18 05:38:00;;;;;;;17.67;12.23;;;6.80;72.40;;;;;;5027193;28;20041;-70
2022/04/18 05:40:25;;;;;;;17.73;12.93;;;7.20;72.20;;;;;;5029153;28;20037;-70
2022/04/18 05:42:54;;;;;;;18.48;12.27;;;7.50;71.70;;;;;;5025962;28;20049;-70
2022/04/18 05:45:19;;;;;;;15.73;12.35;;;7.70;71.10;;;;;;5026868;28;20053;-70
2022/04/18 05:47:45;;;;;;;22.63;13.23;;;8.00;70.20;;;;;;5021040;28;20042;-70
2022/04/18 05:50:11;;;;;;;17.50;12.07;;;8.30;69.60;;;;;;5041688;28;20128;-69
2022/04/18 05:52:37;;;;;;;16.17;12.13;;;8.50;68.40;;;;;;5026992;28;20045;-70
2022/04/18 05:55:02;;;;;;;16.00;11.52;;;8.50;68.20;;;;;;5027173;28;20076;-69
2022/04/18 05:57:28;;;;;;;16.58;11.93;;;8.40;68.50;;;;;;5025836;28;20062;-69
2022/04/18 05:59:54;;;;;;;16.25;11.82;;;8.30;69.00;;;;;;5026154;28;20124;-69
2022/04/18 06:02:19;;;;;;;16.27;12.00;;;8.30;69.00;;;;;;5026987;28;20111;-69
2022/04/18 06:04:45;;;;;;;17.58;12.25;;;8.30;69.30;;;;;;5030096;28;20198;-69
2022/04/18 06:07:11;;;;;;;16.40;12.13;;;8.30;69.10;;;;;;5031256;28;20583;-69
2022/04/18 06:09:37;;;;;;;15.48;11.88;;;8.30;69.20;;;;;;5032190;28;20422;-69
2022/04/18 06:12:03;;;;;;;15.25;11.68;;;8.40;69.10;;;;;;5029472;28;20041;-69
2022/04/18 06:14:29;;;;;;;14.80;11.18;;;8.40;69.10;;;;;;5029859;28;20053;-69
2022/04/18 06:16:55;;;;;;;17.67;11.68;;;8.50;69.10;;;;;;5021580;28;20535;-69
2022/04/18 06:19:20;;;;;;;17.30;11.40;;;8.50;69.10;;;;;;5019423;28;20148;-69
2022/04/18 06:21:48;;;;;;;16.23;10.93;;;8.60;69.40;;;;;;5023753;28;20092;-69
2022/04/18 06:24:14;;;;;;;14.98;11.02;;;8.70;69.20;;;;;;5024990;28;20080;-69
2022/04/18 06:26:40;;;;;;;13.82;10.50;;;8.80;68.80;;;;;;5022147;28;20419;-69
2022/04/18 06:29:06;;;;;;;13.35;10.50;;;8.90;68.20;;;;;;5022025;28;20037;-69
2022/04/18 06:31:31;;;;;;;17.05;10.32;;;8.90;67.90;;;;;;5016119;28;20060;-69
2022/04/18 06:33:57;;;;;;;12.05;10.18;;;8.90;68.50;;;;;;5013414;28;20061;-69
2022/04/18 06:36:23;;;;;;;15.50;10.93;;;9.10;69.00;;;;;;5014991;28;20045;-70
2022/04/18 06:38:48;;;;;;;13.68;10.63;;;9.20;68.20;;;;;;5022409;28;20037;-69
2022/04/18 06:41:14;;;;;;;12.85;10.80;;;9.30;67.50;;;;;;5020611;28;20038;-69
2022/04/18 06:43:40;;;;;;;11.32;9.68;;;9.50;67.10;;;;;;5020604;28;20130;-69
2022/04/18 06:46:05;;;;;;;13.18;10.10;;;9.60;67.50;;;;;;5014971;28;20165;-70
2022/04/18 06:48:31;;;;;;;13.43;9.90;;;9.70;66.90;;;;;;4997345;28;20053;-70
2022/04/18 06:50:57;;;;;;;14.18;10.13;;;9.80;66.80;;;;;;5018927;28;20399;-70
2022/04/18 06:53:23;;;;;;;15.07;10.88;;;10.00;67.20;;;;;;5022076;28;20037;-69
2022/04/18 06:58:33;;;;;;;12.07;9.30;;;10.40;66.90;;;;;;5024842;28;20061;-70
2022/04/18 07:00:58;;;;;;;12.65;10.00;;;10.70;66.90;;;;;;5025004;28;20050;-69
2022/04/18 07:03:27;;;;;;;11.82;10.40;;;11.00;67.00;;;;;;5023557;28;20037;-69
2022/04/18 07:05:52;;;;;;;13.70;9.32;;;11.40;65.20;;;;;;5006533;28;20041;-69
2022/04/18 07:08:18;;;;;;;13.00;9.93;;;11.80;64.60;;;;;;5022386;28;20076;-69
2022/04/18 07:10:43;;;;;;;13.00;9.85;;;12.00;63.90;;;;;;5006862;28;20061;-69
2022/04/18 07:13:09;;;;;;;12.40;10.07;;;12.40;63.30;;;;;;5021940;28;20141;-69
2022/04/18 07:15:35;;;;;;;14.07;9.27;;;12.90;61.90;;;;;;5027603;28;20038;-69
2022/04/18 07:18:01;;;;;;;11.02;9.70;;;13.40;59.60;;;;;;5019948;28;20111;-69
2022/04/18 07:20:28;;;;;;;10.38;8.90;;;13.90;59.40;;;;;;5020810;28;20050;-69
2022/04/18 07:22:54;;;;;;;11.40;8.55;;;14.30;58.20;;;;;;5023567;28;20069;-70
2022/04/18 07:25:20;;;;;;;10.85;8.52;;;14.70;57.00;;;;;;5023233;28;20394;-69
2022/04/18 07:27:46;;;;;;;10.43;8.13;;;15.10;56.60;;;;;;5023869;28;20119;-69
2022/04/18 07:30:12;;;;;;;11.18;7.90;;;15.50;54.10;;;;;;5020946;28;20107;-69
2022/04/18 07:32:42;;;;;;;12.20;8.20;;;15.50;53.30;;;;;;5022122;28;20045;-69
2022/04/18 07:35:09;;;;;;;9.00;7.47;;;15.60;53.20;;;;;;5013976;28;20152;-69
2022/04/18 07:37:36;;;;;;;9.35;7.10;;;15.80;51.50;;;;;;5020887;28;20053;-70
2022/04/18 07:40:02;;;;;;;9.35;7.45;;;16.10;49.60;;;;;;5012141;28;20050;-70
2022/04/18 07:42:28;;;;;;;10.68;7.70;;;16.30;49.30;;;;;;5014518;28;21810;-70
2022/04/18 07:44:54;;;;;;;11.82;7.82;;;16.70;49.90;;;;;;5010221;28;20062;-70
2022/04/18 07:47:20;;;;;;;10.07;7.38;;;16.90;49.40;;;;;;5015764;28;20053;-70
2022/04/18 07:49:46;;;;;;;11.35;7.85;;;17.20;49.30;;;;;;5017218;28;20041;-70
2022/04/18 07:52:12;;;;;;;9.43;7.15;;;17.20;48.20;;;;;;5013545;28;20067;-70
2022/04/18 07:54:39;;;;;;;10.57;7.00;;;17.20;47.40;;;;;;5010974;28;20053;-70
2022/04/18 07:57:05;;;;;;;11.63;7.30;;;17.10;47.40;;;;;;5015905;28;20057;-71
2022/04/18 07:59:31;;;;;;;12.35;7.45;;;17.20;47.70;;;;;;5020740;28;20175;-70
2022/04/18 08:01:57;;;;;;;10.98;7.65;;;17.30;47.50;;;;;;5017732;28;20053;-70
2022/04/18 08:04:23;;;;;;;7.43;6.60;;;17.80;48.20;;;;;;5021133;28;20061;-70
2022/04/18 08:06:49;;;;;;;8.57;6.85;;;18.40;47.30;;;;;;5019992;28;20418;-70
2022/04/18 08:09:14;;;;;;;8.82;7.20;;;18.90;47.20;;;;;;5019580;28;20030;-70
2022/04/18 08:11:40;;;;;;;8.32;7.10;;;19.20;45.80;;;;;;5021319;28;20096;-68
2022/04/18 08:14:06;;;;;;;9.13;6.90;;;19.70;45.70;;;;;;5022866;28;20038;-68
2022/04/18 08:16:34;;;;;;;8.07;7.00;;;19.80;44.40;;;;;;5021216;28;20565;-70
2022/04/18 08:19:00;;;;;;;8.77;6.93;;;20.00;44.30;;;;;;5019931;28;20478;-70
2022/04/18 08:21:26;;;;;;;7.78;6.68;;;20.00;44.00;;;;;;5014760;28;20037;-70
2022/04/18 08:23:52;;;;;;;9.85;6.80;;;20.30;44.20;;;;;;5025005;28;20485;-70
2022/04/18 08:26:19;;;;;;;7.32;6.50;;;20.50;43.90;;;;;;5025537;28;20056;-69
2022/04/18 08:28:45;;;;;;;8.10;5.85;;;20.80;43.20;;;;;;5013248;28;20053;-69
2022/04/18 08:31:11;;;;;;;6.22;5.63;;;21.00;41.60;;;;;;5023640;28;20057;-70
2022/04/18 08:33:37;;;;;;;7.90;5.60;;;21.30;42.40;;;;;;5024479;28;20053;-69
2022/04/18 08:36:04;;;;;;;7.95;5.80;;;21.60;42.30;;;;;;5019812;28;20045;-69
2022/04/18 08:38:29;;;;;;;7.70;6.30;;;21.50;41.10;;;;;;5022606;28;20048;-69
2022/04/18 08:40:57;;;;;;;8.88;6.40;;;21.70;40.70;;;;;;5023003;28;20034;-69
2022/04/18 08:43:23;;;;;;;8.43;6.45;;;21.70;40.00;;;;;;5025556;28;20500;-69
2022/04/18 08:45:49;;;;;;;7.65;5.93;;;21.70;39.40;;;;;;5021379;28;20117;-69
2022/04/18 08:53:47;;;;;;;7.18;5.90;;;21.50;39.70;;;;;;5028519;28;20052;-69
2022/04/18 08:56:13;;;;;;;7.68;6.57;;;21.60;39.50;;;;;;5030245;28;20046;-69
2022/04/18 08:58:40;;;;;;;7.93;6.75;;;21.70;39.30;;;;;;5030736;28;20473;-69
2022/04/18 09:01:06;;;;;;;8.73;6.60;;;21.80;39.30;;;;;;5026749;28;20112;-69
2022/04/18 09:03:32;;;;;;;9.23;6.35;;;22.00;39.80;;;;;;5030320;28;20161;-69
2022/04/18 09:06:03;;;;;;;7.55;6.05;;;22.30;39.10;;;;;;5030094;28;20045;-69
2022/04/18 09:08:32;;;;;;;7.20;6.50;;;22.50;38.70;;;;;;5029452;28;20037;-69
2022/04/18 09:10:58;;;;;;;6.65;5.88;;;22.60;39.40;;;;;;5027966;28;20045;-68
2022/04/18 09:13:27;;;;;;;7.38;6.22;;;22.60;38.70;;;;;;5029081;28;20038;-69
2022/04/18 09:15:55;;;;;;;9.20;6.30;;;22.60;39.30;;;;;;5024741;28;20553;-69
2022/04/18 09:18:23;;;;;;;7.60;6.40;;;22.70;40.10;;;;;;5029496;28;20048;-69
2022/04/18 09:20:48;;;;;;;7.30;6.45;;;22.90;38.40;;;;;;5025925;28;20029;-69
2022/04/18 09:23:23;;;;;;;8.73;6.80;;;22.80;38.40;;;;;;5026926;28;20107;-69
2022/04/18 09:25:56;;;;;;;7.57;6.30;;;22.90;39.30;;;;;;5028527;28;20100;-69
2022/04/18 09:28:28;;;;;;;7.18;6.13;;;23.00;38.30;;;;;;5028256;28;20037;-69
2022/04/18 09:31:02;;;;;;;7.30;5.93;;;23.10;38.30;;;;;;5028159;28;20127;-69
2022/04/18 09:33:38;;;;;;;7.63;5.90;;;23.20;39.00;;;;;;5027257;28;20045;-70
2022/04/18 09:36:09;;;;;;;6.50;5.88;;;23.40;38.50;;;;;;5027856;28;20081;-69
2022/04/18 09:38:37;;;;;;;6.78;5.82;;;23.60;38.40;;;;;;5028141;28;20147;-69
2022/04/18 09:41:03;;;;;;;7.40;5.35;;;23.50;37.00;;;;;;5033577;28;20076;-70
2022/04/18 09:43:41;;;;;;;8.95;6.30;;;23.20;37.40;;;;;;5032741;28;20068;-70
2022/04/18 09:46:08;;;;;;;6.80;5.43;;;23.20;37.70;;;;;;5031528;28;20368;-70
2022/04/18 09:48:34;;;;;;;5.28;4.57;;;23.30;37.40;;;;;;5032107;28;20059;-69
2022/04/18 09:51:05;;;;;;;5.93;5.25;;;23.30;37.20;;;;;;5032286;28;20473;-69
2022/04/18 09:53:31;;;;;;;8.80;5.32;;;23.50;38.40;;;;;;5033109;28;20041;-70
2022/04/18 09:55:57;;;;;;;8.40;5.88;;;23.70;36.30;;;;;;5033132;28;20045;-69
2022/04/18 09:58:24;;;;;;;6.38;4.82;;;23.50;35.20;;;;;;5015148;28;20041;-69
2022/04/18 10:00:49;;;;;;;9.00;5.05;;;23.40;36.10;;;;;;5030573;28;20436;-69
2022/04/18 10:03:16;;;;;;;5.50;4.45;;;23.50;36.30;;;;;;5033583;28;20095;-70
2022/04/18 10:05:42;;;;;;;6.65;4.90;;;23.60;35.10;;;;;;5033038;28;20045;-69
2022/04/18 10:08:08;;;;;;;6.15;4.85;;;23.70;36.60;;;;;;5032692;28;20043;-69
2022/04/18 10:10:41;;;;;;;4.88;4.07;;;23.80;34.60;;;;;;5032583;28;20540;-69
2022/04/18 10:13:08;;;;;;;5.90;4.53;;;23.90;34.40;;;;;;5032301;28;20068;-70
2022/04/18 10:15:38;;;;;;;5.75;4.45;;;24.00;35.00;;;;;;5028562;28;20374;-70
2022/04/18 10:18:07;;;;;;;5.22;4.25;;;24.00;34.50;;;;;;5032743;28;20128;-70
2022/04/18 10:20:59;;;;;;;8.50;4.68;;;24.10;34.70;;;;;;5033480;28;20125;-70
2022/04/18 10:23:53;;;;;;;4.57;4.07;;;24.00;33.40;;;;;;5032938;28;20034;-70
2022/04/18 10:26:43;;;;;;;5.00;4.07;;;23.70;33.80;;;;;;5033169;28;20428;-69
2022/04/18 10:29:18;;;;;;;6.57;4.20;;;23.70;34.70;;;;;;5026462;28;20049;-70
2022/04/18 10:31:45;;;;;;;5.25;4.03;;;23.70;33.70;;;;;;5031377;28;20467;-69
2022/04/18 10:34:14;;;;;;;5.72;4.10;;;23.80;34.30;;;;;;5032898;28;20075;-70
2022/04/18 10:36:50;;;;;;;5.30;4.35;;;24.00;33.80;;;;;;5030540;28;20298;-70
2022/04/18 10:39:16;;;;;;;4.70;3.42;;;23.90;33.30;;;;;;5031248;28;20458;-70
2022/04/18 10:41:44;;;;;;;4.68;2.78;;;23.90;34.00;;;;;;5033009;28;20366;-71
2022/04/18 10:44:11;;;;;;;4.38;3.28;;;24.00;34.00;;;;;;5031585;28;20042;-70
2022/04/18 10:47:03;;;;;;;4.65;3.67;;;24.20;33.90;;;;;;5031233;28;20042;-70
2022/04/18 10:49:31;;;;;;;3.83;2.72;;;24.40;33.40;;;;;;5028928;28;20085;-70
2022/04/18 10:52:05;;;;;;;4.07;2.70;;;24.50;33.20;;;;;;5032444;28;20056;-70
2022/04/18 10:54:31;;;;;;;3.80;2.50;;;24.40;31.30;;;;;;5029607;28;20767;-70
2022/04/18 10:57:11;;;;;;;3.90;2.88;;;24.60;31.90;;;;;;5032639;28;20071;-70
2022/04/18 10:59:42;;;;;;;3.92;2.90;;;25.00;31.20;;;;;;5028920;28;20175;-70
2022/04/18 11:02:29;;;;;;;3.40;1.98;;;25.20;31.40;;;;;;5030538;28;20037;-70
2022/04/18 11:04:55;;;;;;;4.38;2.08;;;25.40;30.90;;;;;;5031376;28;20557;-70
2022/04/18 11:07:40;;;;;;;2.40;1.75;;;25.50;31.10;;;;;;5030970;28;20052;-70
2022/04/18 11:10:26;;;;;;;2.33;1.33;;;25.50;29.40;;;;;;5031437;28;20570;-69
2022/04/18 11:12:59;;;;;;;1.98;1.42;;;25.50;28.70;;;;;;5030336;28;20045;-69
2022/04/18 11:15:25;;;;;;;3.15;1.52;;;25.30;28.60;;;;;;5024034;28;20087;-70
2022/04/18 11:17:51;;;;;;;2.45;2.13;;;25.20;28.60;;;;;;5031480;28;20473;-70
2022/04/18 11:20:32;;;;;;;3.22;2.17;;;25.30;29.20;;;;;;5032008;28;20508;-70
2022/04/18 11:23:16;;;;;;;4.28;2.50;;;25.50;30.00;;;;;;5032149;28;20033;-70
2022/04/18 11:26:08;;;;;;;3.85;2.97;;;25.50;28.40;;;;;;5031560;28;20501;-70
2022/04/18 11:28:41;;;;;;;4.13;2.80;;;25.40;28.00;;;;;;5030531;28;20053;-70
2022/04/18 11:31:18;;;;;;;3.05;2.60;;;25.30;28.90;;;;;;5029073;28;20042;-70
2022/04/18 11:33:45;;;;;;;5.55;2.85;;;25.60;28.70;;;;;;5030568;28;20090;-70
2022/04/18 11:36:13;;;;;;;3.33;2.67;;;25.70;29.00;;;;;;5028193;28;20053;-70
2022/04/18 11:38:39;;;;;;;3.35;2.25;;;25.90;28.80;;;;;;5031732;28;20045;-70
2022/04/18 11:41:13;;;;;;;3.10;2.80;;;25.90;27.90;;;;;;5031363;28;20033;-70
2022/04/18 11:43:39;;;;;;;2.92;2.60;;;25.80;27.80;;;;;;5029835;28;20045;-70
2022/04/18 11:46:07;;;;;;;4.90;2.60;;;25.60;29.00;;;;;;5028100;28;20158;-70
2022/04/18 11:48:34;;;;;;;4.13;2.70;;;25.70;29.30;;;;;;5031632;28;20123;-70
2022/04/18 11:51:00;;;;;;;3.05;2.72;;;25.90;28.70;;;;;;5029670;28;20080;-70
2022/04/18 11:53:33;;;;;;;4.28;2.90;;;26.10;28.20;;;;;;5030002;28;20041;-70
2022/04/18 11:56:06;;;;;;;4.00;3.00;;;26.20;28.80;;;;;;5029613;28;20466;-69
2022/04/18 11:58:37;;;;;;;3.25;2.95;;;26.10;28.40;;;;;;5030332;28;20477;-70
2022/04/18 12:06:45;;;;;;;4.93;3.40;;;25.90;29.10;;;;;;5029238;28;20056;-70
2022/04/18 12:09:13;;;;;;;3.78;3.30;;;26.10;29.30;;;;;;5029990;28;20528;-69
2022/04/18 12:11:40;;;;;;;4.32;3.25;;;26.30;28.60;;;;;;5026230;28;20162;-69
2022/04/18 12:14:06;;;;;;;4.18;3.00;;;26.00;28.50;;;;;;5028820;28;20085;-70
2022/04/18 12:16:36;;;;;;;4.28;2.78;;;25.90;28.40;;;;;;5029260;28;20081;-70
2022/04/18 12:19:03;;;;;;;3.33;3.03;;;26.00;29.50;;;;;;5031200;28;20130;-70
2022/04/18 12:21:29;;;;;;;3.65;3.17;;;26.10;29.00;;;;;;5030521;28;20482;-69
2022/04/18 12:24:00;;;;;;;4.50;3.10;;;26.20;29.00;;;;;;5029617;28;20045;-69
2022/04/18 12:26:27;;;;;;;4.35;2.90;;;26.30;28.40;;;;;;5028188;28;20198;-69
2022/04/18 12:29:00;;;;;;;3.78;3.40;;;26.10;28.30;;;;;;5029527;28;20142;-69
2022/04/18 12:31:27;;;;;;;4.78;3.50;;;25.90;28.70;;;;;;5026973;28;20051;-69
2022/04/18 12:33:52;;;;;;;4.45;3.60;;;25.70;29.00;;;;;;5030859;28;20055;-70
2022/04/18 12:36:32;;;;;;;4.15;3.75;;;25.40;29.10;;;;;;5030371;28;20046;-70
2022/04/18 12:38:58;;;;;;;4.95;3.75;;;25.30;29.00;;;;;;5027941;28;20038;-70
2022/04/18 12:41:33;;;;;;;4.47;3.40;;;25.40;28.90;;;;;;5020489;28;20143;-70
2022/04/18 12:43:59;;;;;;;4.60;3.25;;;25.50;29.50;;;;;;5024154;28;20045;-69
2022/04/18 12:46:34;;;;;;;5.15;3.50;;;25.70;29.60;;;;;;5029440;28;20037;-70
2022/04/18 12:49:09;;;;;;;4.63;3.58;;;25.90;28.90;;;;;;5027648;28;20053;-70
2022/04/18 12:51:42;;;;;;;5.15;3.53;;;25.80;28.50;;;;;;5029691;28;20044;-70
2022/04/18 12:54:20;;;;;;;3.45;3.10;;;25.60;28.90;;;;;;5026406;28;20049;-70
2022/04/18 12:56:48;;;;;;;5.78;3.33;;;25.90;30.10;;;;;;5029374;28;20406;-70
2022/04/18 12:59:21;;;;;;;3.70;3.28;;;26.10;29.30;;;;;;5027205;28;20038;-70
2022/04/18 13:01:46;;;;;;;6.87;3.63;;;26.30;29.40;;;;;;5025764;28;20041;-70
2022/04/18 13:04:23;;;;;;;5.15;3.63;;;26.40;28.50;;;;;;5028933;28;20287;-70
2022/04/18 13:06:56;;;;;;;4.82;3.28;;;26.30;29.30;;;;;;5028670;28;20478;-70